sensor_id;sensor_type;location;lat;lon;timestamp;pressure;altitude;pressure_sealevel;temperature;humidity
19108;BME280;9686;48.832;9.126;2023-05-20T00:01:14;98290.69;;;13.26;nan
19108;BME280;9686;48.832;9.126;2023-05-20T00:03:40;98302.00;;;13.30;nan
19108;BME280;9686;48.832;9.126;2023-05-20T00:06:05;98293.38;;;13.23;nan
19108;BME280;9686;48.832;9.126;2023-05-20T00:08:30;98303.84;;;13.23;nan
19108;BME280;9686;48.832;9.126;2023-05-20T00:10:55;98301.16;;;13.30;nan
19108;BME280;9686;48.832;9.126;2023-05-20T00:13:21;98293.09;;;13.42;nan
19108;BME280;9686;48.832;9.126;2023-05-20T00:15:48;98292.13;;;13.46;nan
19108;BME280;9686;48.832;9.126;2023-05-20T00:18:13;98288.78;;;13.38;nan
19108;BME280;9686;48.832;9.126;2023-05-20T00:20:38;98290.44;;;13.43;nan
19108;BME280;9686;48.832;9.126;2023-05-20T00:23:04;98288.00;;;13.33;nan
19108;BME280;9686;48.832;9.126;2023-05-20T00:25:29;98287.81;;;13.43;nan
19108;BME280;9686;48.832;9.126;2023-05-20T00:27:56;98292.91;;;13.51;nan
19108;BME280;9686;48.832;9.126;2023-05-20T00:30:21;98278.13;;;13.48;nan
19108;BME280;9686;48.832;9.126;2023-05-20T00:32:47;98288.44;;;13.59;nan
19108;BME280;9686;48.832;9.126;2023-05-20T00:35:12;98276.84;;;13.72;nan
19108;BME280;9686;48.832;9.126;2023-05-20T00:37:38;98283.84;;;13.72;nan
19108;BME280;9686;48.832;9.126;2023-05-20T00:40:03;98286.34;;;13.79;nan
19108;BME280;9686;48.832;9.126;2023-05-20T00:42:29;98282.47;;;13.99;nan
19108;BME280;9686;48.832;9.126;2023-05-20T00:44:55;98284.38;;;13.92;nan
19108;BME280;9686;48.832;9.126;2023-05-20T00:47:28;98278.09;;;13.99;nan
19108;BME280;9686;48.832;9.126;2023-05-20T00:49:55;98291.22;;;13.99;nan
19108;BME280;9686;48.832;9.126;2023-05-20T00:52:22;98283.19;;;14.08;nan
19108;BME280;9686;48.832;9.126;2023-05-20T00:54:48;98277.97;;;14.07;nan
19108;BME280;9686;48.832;9.126;2023-05-20T00:57:14;98277.28;;;13.97;nan
19108;BME280;9686;48.832;9.126;2023-05-20T00:59:39;98274.66;;;13.97;nan
19108;BME280;9686;48.832;9.126;2023-05-20T01:02:05;98272.91;;;13.98;nan
19108;BME280;9686;48.832;9.126;2023-05-20T01:04:31;98272.94;;;13.96;nan
19108;BME280;9686;48.832;9.126;2023-05-20T01:06:58;98283.16;;;14.10;nan
19108;BME280;9686;48.832;9.126;2023-05-20T01:09:25;98277.16;;;14.03;nan
19108;BME280;9686;48.832;9.126;2023-05-20T01:12:16;98272.06;;;13.96;nan
19108;BME280;9686;48.832;9.126;2023-05-20T01:14:48;98271.09;;;14.00;nan
19108;BME280;9686;48.832;9.126;2023-05-20T01:17:15;98260.75;;;13.94;nan
19108;BME280;9686;48.832;9.126;2023-05-20T01:19:45;98271.19;;;13.95;nan
19108;BME280;9686;48.832;9.126;2023-05-20T01:22:13;98265.88;;;14.00;nan
19108;BME280;9686;48.832;9.126;2023-05-20T01:24:44;98258.06;;;13.97;nan
19108;BME280;9686;48.832;9.126;2023-05-20T01:27:11;98268.41;;;14.03;nan
19108;BME280;9686;48.832;9.126;2023-05-20T01:29:40;98261.28;;;14.12;nan
19108;BME280;9686;48.832;9.126;2023-05-20T01:32:10;98261.41;;;14.06;nan
19108;BME280;9686;48.832;9.126;2023-05-20T01:34:36;98252.50;;;14.13;nan
19108;BME280;9686;48.832;9.126;2023-05-20T01:37:03;98256.78;;;14.17;nan
19108;BME280;9686;48.832;9.126;2023-05-20T01:39:30;98254.94;;;14.23;nan
19108;BME280;9686;48.832;9.126;2023-05-20T01:41:56;98245.50;;;14.14;nan
19108;BME280;9686;48.832;9.126;2023-05-20T01:44:22;98248.31;;;14.03;nan
19108;BME280;9686;48.832;9.126;2023-05-20T01:46:48;98257.06;;;14.02;nan
19108;BME280;9686;48.832;9.126;2023-05-20T01:49:14;98256.84;;;14.14;nan
19108;BME280;9686;48.832;9.126;2023-05-20T01:51:39;98249.94;;;14.10;nan
19108;BME280;9686;48.832;9.126;2023-05-20T01:54:04;98256.97;;;14.08;nan
19108;BME280;9686;48.832;9.126;2023-05-20T01:56:30;98255.28;;;14.04;nan
19108;BME280;9686;48.832;9.126;2023-05-20T01:58:55;98252.66;;;14.04;nan
19108;BME280;9686;48.832;9.126;2023-05-20T02:01:20;98259.94;;;13.90;nan
19108;BME280;9686;48.832;9.126;2023-05-20T02:03:46;98261.66;;;13.91;nan
19108;BME280;9686;48.832;9.126;2023-05-20T02:06:11;98260.06;;;13.84;nan
19108;BME280;9686;48.832;9.126;2023-05-20T02:08:36;98252.22;;;13.82;nan
19108;BME280;9686;48.832;9.126;2023-05-20T02:11:02;98245.28;;;13.80;nan
19108;BME280;9686;48.832;9.126;2023-05-20T02:13:27;98240.06;;;13.78;nan
19108;BME280;9686;48.832;9.126;2023-05-20T02:15:52;98241.75;;;13.82;nan
19108;BME280;9686;48.832;9.126;2023-05-20T02:18:17;98238.25;;;13.82;nan
19108;BME280;9686;48.832;9.126;2023-05-20T02:20:43;98239.13;;;13.82;nan
19108;BME280;9686;48.832;9.126;2023-05-20T02:23:08;98239.25;;;13.75;nan
19108;BME280;9686;48.832;9.126;2023-05-20T02:25:33;98235.84;;;13.70;nan
19108;BME280;9686;48.832;9.126;2023-05-20T02:27:59;98247.19;;;13.70;nan
19108;BME280;9686;48.832;9.126;2023-05-20T02:30:25;98250.03;;;13.58;nan
19108;BME280;9686;48.832;9.126;2023-05-20T02:32:51;98249.22;;;13.56;nan
19108;BME280;9686;48.832;9.126;2023-05-20T02:35:16;98249.25;;;13.51;nan
19108;BME280;9686;48.832;9.126;2023-05-20T02:37:41;98246.69;;;13.48;nan
19108;BME280;9686;48.832;9.126;2023-05-20T02:40:09;98255.53;;;13.43;nan
19108;BME280;9686;48.832;9.126;2023-05-20T02:42:34;98246.03;;;13.37;nan
19108;BME280;9686;48.832;9.126;2023-05-20T02:44:59;98246.84;;;13.41;nan
19108;BME280;9686;48.832;9.126;2023-05-20T02:47:25;98246.00;;;13.39;nan
19108;BME280;9686;48.832;9.126;2023-05-20T02:49:51;98242.66;;;13.31;nan
19108;BME280;9686;48.832;9.126;2023-05-20T02:52:16;98244.38;;;13.32;nan
19108;BME280;9686;48.832;9.126;2023-05-20T02:54:42;98246.09;;;13.34;nan
19108;BME280;9686;48.832;9.126;2023-05-20T02:57:07;98247.75;;;13.38;nan
19108;BME280;9686;48.832;9.126;2023-05-20T02:59:32;98247.06;;;13.29;nan
19108;BME280;9686;48.832;9.126;2023-05-20T03:01:58;98248.81;;;13.26;nan
19108;BME280;9686;48.832;9.126;2023-05-20T03:04:23;98255.72;;;13.32;nan
19108;BME280;9686;48.832;9.126;2023-05-20T03:06:50;98249.63;;;13.32;nan
19108;BME280;9686;48.832;9.126;2023-05-20T03:09:16;98254.97;;;13.22;nan
19108;BME280;9686;48.832;9.126;2023-05-20T03:11:42;98254.97;;;13.24;nan
19108;BME280;9686;48.832;9.126;2023-05-20T03:14:08;98255.88;;;13.21;nan
19108;BME280;9686;48.832;9.126;2023-05-20T03:16:33;98254.81;;;13.35;nan
19108;BME280;9686;48.832;9.126;2023-05-20T03:18:59;98253.19;;;13.27;nan
19108;BME280;9686;48.832;9.126;2023-05-20T03:21:24;98251.53;;;13.20;nan
19108;BME280;9686;48.832;9.126;2023-05-20T03:23:50;98254.97;;;13.22;nan
19108;BME280;9686;48.832;9.126;2023-05-20T03:26:16;98253.19;;;13.26;nan
19108;BME280;9686;48.832;9.126;2023-05-20T03:28:41;98245.47;;;13.18;nan
19108;BME280;9686;48.832;9.126;2023-05-20T03:31:06;98256.94;;;13.08;nan
19108;BME280;9686;48.832;9.126;2023-05-20T03:33:34;98248.78;;;13.30;nan
19108;BME280;9686;48.832;9.126;2023-05-20T03:35:59;98251.28;;;13.37;nan
19108;BME280;9686;48.832;9.126;2023-05-20T03:38:26;98247.06;;;13.29;nan
19108;BME280;9686;48.832;9.126;2023-05-20T03:40:51;98246.09;;;13.34;nan
19108;BME280;9686;48.832;9.126;2023-05-20T03:43:16;98252.16;;;13.36;nan
19108;BME280;9686;48.832;9.126;2023-05-20T03:45:42;98255.81;;;13.27;nan
19108;BME280;9686;48.832;9.126;2023-05-20T03:48:07;98263.63;;;13.29;nan
19108;BME280;9686;48.832;9.126;2023-05-20T03:50:33;98257.59;;;13.22;nan
19108;BME280;9686;48.832;9.126;2023-05-20T03:52:58;98261.97;;;13.22;nan
19108;BME280;9686;48.832;9.126;2023-05-20T03:55:23;98268.25;;;13.10;nan
19108;BME280;9686;48.832;9.126;2023-05-20T03:57:49;98267.47;;;13.05;nan
19108;BME280;9686;48.832;9.126;2023-05-20T04:00:14;98273.50;;;13.09;nan
19108;BME280;9686;48.832;9.126;2023-05-20T04:02:41;98272.56;;;13.13;nan
19108;BME280;9686;48.832;9.126;2023-05-20T04:05:06;98268.38;;;13.03;nan
19108;BME280;9686;48.832;9.126;2023-05-20T04:07:33;98262.13;;;13.11;nan
19108;BME280;9686;48.832;9.126;2023-05-20T04:09:58;98259.38;;;13.20;nan
19108;BME280;9686;48.832;9.126;2023-05-20T04:12:23;98254.28;;;13.11;nan
19108;BME280;9686;48.832;9.126;2023-05-20T04:14:56;98251.59;;;13.14;nan
19108;BME280;9686;48.832;9.126;2023-05-20T04:17:22;98259.31;;;13.25;nan
19108;BME280;9686;48.832;9.126;2023-05-20T04:19:47;98261.25;;;13.11;nan
19108;BME280;9686;48.832;9.126;2023-05-20T04:22:13;98262.03;;;13.19;nan
19108;BME280;9686;48.832;9.126;2023-05-20T04:24:38;98254.06;;;13.25;nan
19108;BME280;9686;48.832;9.126;2023-05-20T04:27:03;98251.25;;;13.39;nan
19108;BME280;9686;48.832;9.126;2023-05-20T04:29:30;98252.22;;;13.33;nan
19108;BME280;9686;48.832;9.126;2023-05-20T04:31:58;98252.19;;;13.35;nan
19108;BME280;9686;48.832;9.126;2023-05-20T04:34:28;98247.78;;;13.37;nan
19108;BME280;9686;48.832;9.126;2023-05-20T04:36:53;98244.06;;;13.50;nan
19108;BME280;9686;48.832;9.126;2023-05-20T04:39:19;98240.63;;;13.46;nan
19108;BME280;9686;48.832;9.126;2023-05-20T04:41:44;98240.50;;;13.55;nan
19108;BME280;9686;48.832;9.126;2023-05-20T04:44:12;98232.50;;;13.63;nan
19108;BME280;9686;48.832;9.126;2023-05-20T04:46:37;98231.75;;;14.01;nan
19108;BME280;9686;48.832;9.126;2023-05-20T04:49:04;98227.41;;;14.00;nan
19108;BME280;9686;48.832;9.126;2023-05-20T04:51:29;98236.06;;;14.05;nan
19108;BME280;9686;48.832;9.126;2023-05-20T04:53:54;98232.63;;;14.02;nan
19108;BME280;9686;48.832;9.126;2023-05-20T04:56:20;98231.81;;;13.98;nan
19108;BME280;9686;48.832;9.126;2023-05-20T04:58:45;98232.72;;;13.97;nan
19108;BME280;9686;48.832;9.126;2023-05-20T05:01:10;98238.69;;;14.04;nan
19108;BME280;9686;48.832;9.126;2023-05-20T05:03:36;98238.69;;;14.05;nan
19108;BME280;9686;48.832;9.126;2023-05-20T05:06:01;98239.53;;;14.07;nan
19108;BME280;9686;48.832;9.126;2023-05-20T05:08:26;98241.13;;;14.14;nan
19108;BME280;9686;48.832;9.126;2023-05-20T05:10:51;98244.44;;;14.23;nan
19108;BME280;9686;48.832;9.126;2023-05-20T05:13:17;98239.81;;;14.37;nan
19108;BME280;9686;48.832;9.126;2023-05-20T05:15:43;98234.66;;;14.31;nan
19108;BME280;9686;48.832;9.126;2023-05-20T05:18:08;98231.75;;;14.46;nan
19108;BME280;9686;48.832;9.126;2023-05-20T05:20:33;98230.56;;;14.62;nan
19108;BME280;9686;48.832;9.126;2023-05-20T05:22:59;98227.97;;;14.61;nan
19108;BME280;9686;48.832;9.126;2023-05-20T05:25:24;98217.31;;;14.67;nan
19108;BME280;9686;48.832;9.126;2023-05-20T05:27:49;98217.94;;;14.78;nan
19108;BME280;9686;48.832;9.126;2023-05-20T05:30:15;98209.72;;;14.93;nan
19108;BME280;9686;48.832;9.126;2023-05-20T05:32:40;98210.50;;;14.97;nan
19108;BME280;9686;48.832;9.126;2023-05-20T05:35:06;98204.13;;;15.07;nan
19108;BME280;9686;48.832;9.126;2023-05-20T05:37:31;98199.44;;;15.20;nan
19108;BME280;9686;48.832;9.126;2023-05-20T05:39:56;98193.19;;;15.25;nan
19108;BME280;9686;48.832;9.126;2023-05-20T05:42:22;98195.88;;;15.22;nan
19108;BME280;9686;48.832;9.126;2023-05-20T05:44:47;98199.06;;;15.35;nan
19108;BME280;9686;48.832;9.126;2023-05-20T05:47:13;98205.94;;;15.40;nan
19108;BME280;9686;48.832;9.126;2023-05-20T05:49:38;98198.66;;;15.50;nan
19108;BME280;9686;48.832;9.126;2023-05-20T05:52:04;98190.56;;;15.58;nan
19108;BME280;9686;48.832;9.126;2023-05-20T05:54:29;98185.81;;;15.73;nan
19108;BME280;9686;48.832;9.126;2023-05-20T05:56:54;98195.66;;;15.67;nan
19108;BME280;9686;48.832;9.126;2023-05-20T05:59:23;98193.53;;;15.80;nan
19108;BME280;9686;48.832;9.126;2023-05-20T06:01:48;98195.31;;;15.79;nan
19108;BME280;9686;48.832;9.126;2023-05-20T06:04:13;98191.59;;;15.88;nan
19108;BME280;9686;48.832;9.126;2023-05-20T06:06:39;98188.88;;;15.91;nan
19108;BME280;9686;48.832;9.126;2023-05-20T06:09:05;98187.91;;;15.93;nan
19108;BME280;9686;48.832;9.126;2023-05-20T06:11:30;98187.97;;;15.92;nan
19108;BME280;9686;48.832;9.126;2023-05-20T06:13:56;98192.44;;;16.19;nan
19108;BME280;9686;48.832;9.126;2023-05-20T06:16:21;98181.19;;;16.13;nan
19108;BME280;9686;48.832;9.126;2023-05-20T06:18:47;98183.53;;;16.23;nan
19108;BME280;9686;48.832;9.126;2023-05-20T06:21:14;98181.50;;;16.33;nan
19108;BME280;9686;48.832;9.126;2023-05-20T06:23:40;98179.44;;;16.44;nan
19108;BME280;9686;48.832;9.126;2023-05-20T06:26:05;98179.84;;;16.58;nan
19108;BME280;9686;48.832;9.126;2023-05-20T06:28:30;98173.72;;;16.58;nan
19108;BME280;9686;48.832;9.126;2023-05-20T06:30:56;98172.94;;;16.84;nan
19108;BME280;9686;48.832;9.126;2023-05-20T06:33:25;98173.06;;;16.81;nan
19108;BME280;9686;48.832;9.126;2023-05-20T06:35:52;98166.41;;;16.97;nan
19108;BME280;9686;48.832;9.126;2023-05-20T06:38:18;98165.25;;;16.78;nan
19108;BME280;9686;48.832;9.126;2023-05-20T06:40:43;98160.41;;;16.92;nan
19108;BME280;9686;48.832;9.126;2023-05-20T06:43:09;98147.69;;;17.05;nan
19108;BME280;9686;48.832;9.126;2023-05-20T06:45:34;98157.47;;;17.01;nan
19108;BME280;9686;48.832;9.126;2023-05-20T06:47:59;98159.69;;;17.13;nan
19108;BME280;9686;48.832;9.126;2023-05-20T06:50:25;98161.84;;;17.02;nan
19108;BME280;9686;48.832;9.126;2023-05-20T06:52:52;98159.75;;;17.12;nan
19108;BME280;9686;48.832;9.126;2023-05-20T06:55:17;98157.06;;;17.13;nan
19108;BME280;9686;48.832;9.126;2023-05-20T06:57:42;98148.06;;;17.20;nan
19108;BME280;9686;48.832;9.126;2023-05-20T07:00:09;98146.19;;;17.24;nan
19108;BME280;9686;48.832;9.126;2023-05-20T07:02:34;98146.06;;;17.27;nan
19108;BME280;9686;48.832;9.126;2023-05-20T07:05:00;98146.59;;;17.37;nan
19108;BME280;9686;48.832;9.126;2023-05-20T07:07:25;98149.88;;;17.43;nan
19108;BME280;9686;48.832;9.126;2023-05-20T07:09:51;98144.03;;;17.35;nan
19108;BME280;9686;48.832;9.126;2023-05-20T07:12:17;98144.59;;;17.45;nan
19108;BME280;9686;48.832;9.126;2023-05-20T07:14:42;98138.88;;;17.32;nan
19108;BME280;9686;48.832;9.126;2023-05-20T07:17:07;98136.72;;;17.43;nan
19108;BME280;9686;48.832;9.126;2023-05-20T07:19:33;98139.97;;;17.51;nan
19108;BME280;9686;48.832;9.126;2023-05-20T07:21:58;98130.34;;;17.50;nan
19108;BME280;9686;48.832;9.126;2023-05-20T07:24:24;98136.25;;;17.57;nan
19108;BME280;9686;48.832;9.126;2023-05-20T07:26:49;98120.44;;;17.57;nan
19108;BME280;9686;48.832;9.126;2023-05-20T07:29:15;98119.16;;;17.69;nan
19108;BME280;9686;48.832;9.126;2023-05-20T07:31:40;98120.84;;;17.71;nan
19108;BME280;9686;48.832;9.126;2023-05-20T07:34:06;98116.41;;;17.95;nan
19108;BME280;9686;48.832;9.126;2023-05-20T07:36:31;98109.84;;;17.83;nan
19108;BME280;9686;48.832;9.126;2023-05-20T07:38:56;98108.63;;;17.92;nan
19108;BME280;9686;48.832;9.126;2023-05-20T07:41:22;98115.78;;;18.12;nan
19108;BME280;9686;48.832;9.126;2023-05-20T07:43:47;98114.25;;;18.06;nan
19108;BME280;9686;48.832;9.126;2023-05-20T07:46:12;98117.13;;;18.24;nan
19108;BME280;9686;48.832;9.126;2023-05-20T07:48:37;98108.69;;;18.59;nan
19108;BME280;9686;48.832;9.126;2023-05-20T07:51:03;98104.03;;;18.66;nan
19108;BME280;9686;48.832;9.126;2023-05-20T07:53:28;98098.06;;;18.61;nan
19108;BME280;9686;48.832;9.126;2023-05-20T07:55:54;98100.13;;;18.31;nan
19108;BME280;9686;48.832;9.126;2023-05-20T07:58:20;98100.31;;;18.26;nan
19108;BME280;9686;48.832;9.126;2023-05-20T08:00:45;98100.19;;;18.29;nan
19108;BME280;9686;48.832;9.126;2023-05-20T08:03:10;98098.09;;;18.37;nan
19108;BME280;9686;48.832;9.126;2023-05-20T08:05:36;98096.56;;;18.32;nan
19108;BME280;9686;48.832;9.126;2023-05-20T08:08:03;98089.59;;;18.53;nan
19108;BME280;9686;48.832;9.126;2023-05-20T08:10:28;98093.63;;;18.61;nan
19108;BME280;9686;48.832;9.126;2023-05-20T08:12:53;98087.00;;;18.51;nan
19108;BME280;9686;48.832;9.126;2023-05-20T08:15:19;98091.25;;;18.55;nan
19108;BME280;9686;48.832;9.126;2023-05-20T08:17:44;98091.50;;;18.71;nan
19108;BME280;9686;48.832;9.126;2023-05-20T08:20:10;98091.19;;;18.57;nan
19108;BME280;9686;48.832;9.126;2023-05-20T08:22:37;98094.81;;;18.54;nan
19108;BME280;9686;48.832;9.126;2023-05-20T08:25:02;98096.34;;;18.60;nan
19108;BME280;9686;48.832;9.126;2023-05-20T08:27:28;98091.97;;;18.59;nan
19108;BME280;9686;48.832;9.126;2023-05-20T08:29:53;98098.50;;;18.94;nan
19108;BME280;9686;48.832;9.126;2023-05-20T08:32:18;98096.97;;;19.30;nan
19108;BME280;9686;48.832;9.126;2023-05-20T08:34:44;98091.00;;;19.46;nan
19108;BME280;9686;48.832;9.126;2023-05-20T08:37:09;98098.81;;;19.28;nan
19108;BME280;9686;48.832;9.126;2023-05-20T08:39:35;98096.22;;;19.06;nan
19108;BME280;9686;48.832;9.126;2023-05-20T08:42:00;98100.91;;;19.20;nan
19108;BME280;9686;48.832;9.126;2023-05-20T08:44:28;98095.31;;;19.28;nan
19108;BME280;9686;48.832;9.126;2023-05-20T08:46:55;98099.59;;;19.30;nan
19108;BME280;9686;48.832;9.126;2023-05-20T08:49:20;98109.84;;;19.38;nan
19108;BME280;9686;48.832;9.126;2023-05-20T08:51:46;98102.94;;;19.56;nan
19108;BME280;9686;48.832;9.126;2023-05-20T08:54:13;98104.31;;;19.64;nan
19108;BME280;9686;48.832;9.126;2023-05-20T08:56:41;98102.31;;;19.69;nan
19108;BME280;9686;48.832;9.126;2023-05-20T08:59:07;98086.72;;;19.63;nan
19108;BME280;9686;48.832;9.126;2023-05-20T09:01:40;98081.88;;;19.53;nan
19108;BME280;9686;48.832;9.126;2023-05-20T09:04:05;98094.72;;;19.62;nan
19108;BME280;9686;48.832;9.126;2023-05-20T09:06:41;98083.03;;;19.86;nan
19108;BME280;9686;48.832;9.126;2023-05-20T09:09:07;98086.28;;;20.12;nan
19108;BME280;9686;48.832;9.126;2023-05-20T09:11:32;98078.91;;;20.18;nan
19108;BME280;9686;48.832;9.126;2023-05-20T09:13:57;98074.97;;;20.46;nan
19108;BME280;9686;48.832;9.126;2023-05-20T09:16:22;98078.25;;;20.70;nan
19108;BME280;9686;48.832;9.126;2023-05-20T09:18:48;98070.91;;;20.57;nan
19108;BME280;9686;48.832;9.126;2023-05-20T09:21:14;98071.41;;;20.83;nan
19108;BME280;9686;48.832;9.126;2023-05-20T09:23:39;98073.53;;;20.93;nan
19108;BME280;9686;48.832;9.126;2023-05-20T09:26:04;98073.66;;;20.73;nan
19108;BME280;9686;48.832;9.126;2023-05-20T09:28:30;98069.19;;;20.74;nan
19108;BME280;9686;48.832;9.126;2023-05-20T09:30:58;98068.72;;;20.66;nan
19108;BME280;9686;48.832;9.126;2023-05-20T09:33:28;98074.75;;;20.50;nan
19108;BME280;9686;48.832;9.126;2023-05-20T09:36:01;98069.63;;;20.47;nan
19108;BME280;9686;48.832;9.126;2023-05-20T09:38:28;98068.31;;;20.37;nan
19108;BME280;9686;48.832;9.126;2023-05-20T09:41:01;98069.63;;;20.47;nan
19108;BME280;9686;48.832;9.126;2023-05-20T09:43:28;98070.81;;;20.59;nan
19108;BME280;9686;48.832;9.126;2023-05-20T09:45:54;98068.25;;;20.75;nan
19108;BME280;9686;48.832;9.126;2023-05-20T09:48:20;98053.34;;;20.91;nan
19108;BME280;9686;48.832;9.126;2023-05-20T09:50:47;98061.81;;;20.98;nan
19108;BME280;9686;48.832;9.126;2023-05-20T09:53:14;98058.72;;;20.89;nan
19108;BME280;9686;48.832;9.126;2023-05-20T09:55:40;98046.63;;;21.18;nan
19108;BME280;9686;48.832;9.126;2023-05-20T09:58:08;98057.91;;;21.57;nan
19108;BME280;9686;48.832;9.126;2023-05-20T10:00:33;98052.59;;;21.57;nan
19108;BME280;9686;48.832;9.126;2023-05-20T10:02:59;98054.13;;;21.45;nan
19108;BME280;9686;48.832;9.126;2023-05-20T10:05:29;98046.00;;;21.81;nan
19108;BME280;9686;48.832;9.126;2023-05-20T10:19:31;98038.19;;;21.78;nan
19108;BME280;9686;48.832;9.126;2023-05-20T10:22:01;98030.09;;;21.97;nan
19108;BME280;9686;48.832;9.126;2023-05-20T10:24:31;98023.06;;;22.13;nan
19108;BME280;9686;48.832;9.126;2023-05-20T10:26:57;98025.94;;;22.40;nan
19108;BME280;9686;48.832;9.126;2023-05-20T10:29:23;98019.53;;;22.44;nan
19108;BME280;9686;48.832;9.126;2023-05-20T10:31:50;98008.94;;;22.58;nan
19108;BME280;9686;48.832;9.126;2023-05-20T10:34:17;98012.53;;;22.57;nan
19108;BME280;9686;48.832;9.126;2023-05-20T10:39:17;98014.22;;;22.74;nan
19108;BME280;9686;48.832;9.126;2023-05-20T10:41:43;98001.22;;;22.69;nan
19108;BME280;9686;48.832;9.126;2023-05-20T10:44:08;98009.88;;;22.73;nan
19108;BME280;9686;48.832;9.126;2023-05-20T10:46:34;98001.38;;;22.82;nan
19108;BME280;9686;48.832;9.126;2023-05-20T10:49:03;98002.66;;;22.91;nan
19108;BME280;9686;48.832;9.126;2023-05-20T10:51:29;97995.94;;;22.99;nan
19108;BME280;9686;48.832;9.126;2023-05-20T10:53:56;97996.41;;;23.06;nan
19108;BME280;9686;48.832;9.126;2023-05-20T10:56:25;97999.34;;;23.01;nan
19108;BME280;9686;48.832;9.126;2023-05-20T10:58:52;97997.34;;;22.91;nan
19108;BME280;9686;48.832;9.126;2023-05-20T11:01:25;97989.66;;;23.15;nan
19108;BME280;9686;48.832;9.126;2023-05-20T11:03:53;97991.69;;;23.25;nan
19108;BME280;9686;48.832;9.126;2023-05-20T11:06:25;97987.81;;;23.17;nan
19108;BME280;9686;48.832;9.126;2023-05-20T11:08:51;97978.19;;;23.14;nan
19108;BME280;9686;48.832;9.126;2023-05-20T11:11:17;97974.78;;;23.55;nan
19108;BME280;9686;48.832;9.126;2023-05-20T11:13:42;97970.69;;;23.92;nan
19108;BME280;9686;48.832;9.126;2023-05-20T11:16:07;97977.16;;;24.02;nan
19108;BME280;9686;48.832;9.126;2023-05-20T11:18:33;97958.22;;;24.07;nan
19108;BME280;9686;48.832;9.126;2023-05-20T11:20:58;97960.03;;;23.92;nan
19108;BME280;9686;48.832;9.126;2023-05-20T11:23:26;97951.06;;;24.07;nan
19108;BME280;9686;48.832;9.126;2023-05-20T11:25:52;97961.31;;;24.13;nan
19108;BME280;9686;48.832;9.126;2023-05-20T11:28:19;97954.72;;;23.92;nan
19108;BME280;9686;48.832;9.126;2023-05-20T11:30:46;97950.59;;;24.42;nan
19108;BME280;9686;48.832;9.126;2023-05-20T11:33:13;97957.47;;;24.58;nan
19108;BME280;9686;48.832;9.126;2023-05-20T11:35:47;97962.97;;;24.43;nan
19108;BME280;9686;48.832;9.126;2023-05-20T11:38:13;97960.09;;;24.85;nan
19108;BME280;9686;48.832;9.126;2023-05-20T11:40:45;97956.44;;;25.13;nan
19108;BME280;9686;48.832;9.126;2023-05-20T11:43:13;97952.59;;;25.05;nan
19108;BME280;9686;48.832;9.126;2023-05-20T11:45:40;97951.31;;;24.58;nan
19108;BME280;9686;48.832;9.126;2023-05-20T11:48:06;97945.03;;;24.32;nan
19108;BME280;9686;48.832;9.126;2023-05-20T11:50:36;97943.31;;;24.31;nan
19108;BME280;9686;48.832;9.126;2023-05-20T11:53:04;97937.00;;;24.59;nan
19108;BME280;9686;48.832;9.126;2023-05-20T11:55:31;97948.53;;;24.59;nan
19108;BME280;9686;48.832;9.126;2023-05-20T11:57:58;97944.78;;;24.49;nan
19108;BME280;9686;48.832;9.126;2023-05-20T12:00:23;97946.94;;;24.30;nan
19108;BME280;9686;48.832;9.126;2023-05-20T12:02:48;97932.09;;;25.05;nan
19108;BME280;9686;48.832;9.126;2023-05-20T12:05:14;97936.47;;;25.06;nan
19108;BME280;9686;48.832;9.126;2023-05-20T12:07:40;97934.34;;;24.72;nan
19108;BME280;9686;48.832;9.126;2023-05-20T12:10:06;97929.34;;;24.67;nan
19108;BME280;9686;48.832;9.126;2023-05-20T12:12:31;97936.38;;;24.68;nan
19108;BME280;9686;48.832;9.126;2023-05-20T12:14:57;97929.97;;;24.71;nan
19108;BME280;9686;48.832;9.126;2023-05-20T12:17:22;97928.59;;;24.65;nan
19108;BME280;9686;48.832;9.126;2023-05-20T12:19:47;97929.13;;;24.70;nan
19108;BME280;9686;48.832;9.126;2023-05-20T12:22:13;97925.00;;;24.79;nan
19108;BME280;9686;48.832;9.126;2023-05-20T12:24:38;97926.25;;;25.00;nan
19108;BME280;9686;48.832;9.126;2023-05-20T12:27:03;97911.94;;;25.01;nan
19108;BME280;9686;48.832;9.126;2023-05-20T12:29:30;97910.34;;;24.99;nan
19108;BME280;9686;48.832;9.126;2023-05-20T12:31:56;97910.75;;;25.05;nan
19108;BME280;9686;48.832;9.126;2023-05-20T12:34:21;97901.66;;;25.20;nan
19108;BME280;9686;48.832;9.126;2023-05-20T12:36:46;97905.53;;;25.16;nan
19108;BME280;9686;48.832;9.126;2023-05-20T12:39:13;97902.31;;;25.11;nan
19108;BME280;9686;48.832;9.126;2023-05-20T12:41:42;97914.50;;;25.03;nan
19108;BME280;9686;48.832;9.126;2023-05-20T12:44:07;97913.91;;;24.72;nan
19108;BME280;9686;48.832;9.126;2023-05-20T12:46:32;97915.34;;;25.03;nan
19108;BME280;9686;48.832;9.126;2023-05-20T12:48:58;97900.69;;;24.96;nan
19108;BME280;9686;48.832;9.126;2023-05-20T12:51:23;97904.09;;;24.98;nan
19108;BME280;9686;48.832;9.126;2023-05-20T12:53:49;97903.28;;;25.10;nan
19108;BME280;9686;48.832;9.126;2023-05-20T12:56:14;97904.75;;;24.89;nan
19108;BME280;9686;48.832;9.126;2023-05-20T12:58:39;97897.47;;;24.91;nan
19108;BME280;9686;48.832;9.126;2023-05-20T13:01:05;97902.56;;;24.69;nan
19108;BME280;9686;48.832;9.126;2023-05-20T13:03:30;97896.09;;;24.73;nan
19108;BME280;9686;48.832;9.126;2023-05-20T13:05:55;97886.19;;;24.75;nan
19108;BME280;9686;48.832;9.126;2023-05-20T13:08:20;97887.88;;;24.76;nan
19108;BME280;9686;48.832;9.126;2023-05-20T13:10:46;97882.88;;;24.97;nan
19108;BME280;9686;48.832;9.126;2023-05-20T13:13:11;97880.19;;;24.71;nan
19108;BME280;9686;48.832;9.126;2023-05-20T13:15:37;97883.06;;;24.68;nan
19108;BME280;9686;48.832;9.126;2023-05-20T13:18:03;97881.72;;;24.75;nan
19108;BME280;9686;48.832;9.126;2023-05-20T13:20:30;97883.28;;;24.65;nan
19108;BME280;9686;48.832;9.126;2023-05-20T13:22:56;97878.41;;;24.84;nan
19108;BME280;9686;48.832;9.126;2023-05-20T13:25:21;97873.00;;;24.99;nan
19108;BME280;9686;48.832;9.126;2023-05-20T13:27:46;97869.22;;;24.88;nan
19108;BME280;9686;48.832;9.126;2023-05-20T13:30:12;97877.22;;;24.88;nan
19108;BME280;9686;48.832;9.126;2023-05-20T13:32:37;97872.69;;;25.03;nan
19108;BME280;9686;48.832;9.126;2023-05-20T13:35:02;97860.16;;;25.16;nan
19108;BME280;9686;48.832;9.126;2023-05-20T13:37:28;97876.78;;;24.95;nan
19108;BME280;9686;48.832;9.126;2023-05-20T13:39:54;97866.75;;;24.98;nan